sensor_id;sensor_type;location;lat;lon;timestamp;P1;durP1;ratioP1;P2;durP2;ratioP2
1601;SDS011;794;48.592;9.634;2022-09-09T00:00:38;1.97;;;1.57;;
1601;SDS011;794;48.592;9.634;2022-09-09T00:03:14;4.13;;;1.13;;
1601;SDS011;794;48.592;9.634;2022-09-09T00:05:46;3.50;;;1.90;;
1601;SDS011;794;48.592;9.634;2022-09-09T00:08:22;1.80;;;1.70;;
1601;SDS011;794;48.592;9.634;2022-09-09T00:11:00;1.30;;;1.20;;
1601;SDS011;794;48.592;9.634;2022-09-09T00:13:32;4.17;;;1.60;;
1601;SDS011;794;48.592;9.634;2022-09-09T00:16:04;2.70;;;1.30;;
1601;SDS011;794;48.592;9.634;2022-09-09T00:18:46;1.27;;;1.10;;
1601;SDS011;794;48.592;9.634;2022-09-09T00:21:20;2.63;;;1.33;;
1601;SDS011;794;48.592;9.634;2022-09-09T00:23:52;4.00;;;1.03;;
1601;SDS011;794;48.592;9.634;2022-09-09T00:26:21;2.50;;;1.00;;
1601;SDS011;794;48.592;9.634;2022-09-09T00:28:58;6.10;;;1.67;;
1601;SDS011;794;48.592;9.634;2022-09-09T00:31:31;1.93;;;1.30;;
1601;SDS011;794;48.592;9.634;2022-09-09T00:34:02;2.30;;;1.30;;
1601;SDS011;794;48.592;9.634;2022-09-09T00:36:35;2.20;;;1.30;;
1601;SDS011;794;48.592;9.634;2022-09-09T00:39:13;1.20;;;1.00;;
1601;SDS011;794;48.592;9.634;2022-09-09T00:41:49;3.53;;;1.10;;
1601;SDS011;794;48.592;9.634;2022-09-09T00:44:30;4.70;;;1.27;;
1601;SDS011;794;48.592;9.634;2022-09-09T00:50:05;3.20;;;1.23;;
1601;SDS011;794;48.592;9.634;2022-09-09T00:52:43;2.53;;;1.03;;
1601;SDS011;794;48.592;9.634;2022-09-09T00:55:19;2.30;;;1.40;;
1601;SDS011;794;48.592;9.634;2022-09-09T00:57:51;1.40;;;1.30;;
1601;SDS011;794;48.592;9.634;2022-09-09T01:00:20;1.43;;;1.10;;
1601;SDS011;794;48.592;9.634;2022-09-09T01:02:54;1.50;;;1.20;;
1601;SDS011;794;48.592;9.634;2022-09-09T01:05:35;2.47;;;1.20;;
1601;SDS011;794;48.592;9.634;2022-09-09T01:08:20;2.27;;;0.97;;
1601;SDS011;794;48.592;9.634;2022-09-09T01:10:59;2.33;;;1.50;;
1601;SDS011;794;48.592;9.634;2022-09-09T01:13:32;7.60;;;1.40;;
1601;SDS011;794;48.592;9.634;2022-09-09T01:16:07;4.30;;;1.77;;
1601;SDS011;794;48.592;9.634;2022-09-09T01:18:38;1.40;;;1.30;;
1601;SDS011;794;48.592;9.634;2022-09-09T01:21:15;4.97;;;1.10;;
1601;SDS011;794;48.592;9.634;2022-09-09T01:24:08;1.67;;;1.20;;
1601;SDS011;794;48.592;9.634;2022-09-09T01:26:47;2.37;;;1.30;;
1601;SDS011;794;48.592;9.634;2022-09-09T01:29:17;4.77;;;1.60;;
1601;SDS011;794;48.592;9.634;2022-09-09T01:31:52;1.87;;;1.40;;
1601;SDS011;794;48.592;9.634;2022-09-09T01:34:20;1.70;;;1.00;;
1601;SDS011;794;48.592;9.634;2022-09-09T01:37:19;2.10;;;0.90;;
1601;SDS011;794;48.592;9.634;2022-09-09T01:39:51;7.60;;;1.33;;
1601;SDS011;794;48.592;9.634;2022-09-09T01:42:20;1.80;;;1.30;;
1601;SDS011;794;48.592;9.634;2022-09-09T01:44:50;2.40;;;1.37;;
1601;SDS011;794;48.592;9.634;2022-09-09T01:47:17;1.57;;;1.23;;
1601;SDS011;794;48.592;9.634;2022-09-09T01:52:27;2.87;;;1.53;;
1601;SDS011;794;48.592;9.634;2022-09-09T01:54:55;1.57;;;1.43;;
1601;SDS011;794;48.592;9.634;2022-09-09T01:57:26;2.70;;;1.30;;
1601;SDS011;794;48.592;9.634;2022-09-09T02:00:00;1.70;;;1.23;;
1601;SDS011;794;48.592;9.634;2022-09-09T02:02:32;1.40;;;1.10;;
1601;SDS011;794;48.592;9.634;2022-09-09T02:05:08;3.73;;;1.20;;
1601;SDS011;794;48.592;9.634;2022-09-09T02:07:43;2.77;;;1.20;;
1601;SDS011;794;48.592;9.634;2022-09-09T02:10:17;2.30;;;1.10;;
1601;SDS011;794;48.592;9.634;2022-09-09T02:12:49;1.90;;;1.30;;
1601;SDS011;794;48.592;9.634;2022-09-09T02:15:24;1.43;;;1.27;;
1601;SDS011;794;48.592;9.634;2022-09-09T02:17:56;2.73;;;1.53;;
1601;SDS011;794;48.592;9.634;2022-09-09T02:20:24;4.10;;;1.30;;
1601;SDS011;794;48.592;9.634;2022-09-09T02:22:57;2.40;;;1.50;;
1601;SDS011;794;48.592;9.634;2022-09-09T02:25:26;1.93;;;1.23;;
1601;SDS011;794;48.592;9.634;2022-09-09T02:27:57;4.40;;;1.43;;
1601;SDS011;794;48.592;9.634;2022-09-09T02:30:25;2.57;;;1.60;;
1601;SDS011;794;48.592;9.634;2022-09-09T02:32:54;2.17;;;1.20;;
1601;SDS011;794;48.592;9.634;2022-09-09T02:35:24;1.50;;;1.17;;
1601;SDS011;794;48.592;9.634;2022-09-09T02:37:56;3.70;;;1.50;;
1601;SDS011;794;48.592;9.634;2022-09-09T02:40:30;1.30;;;1.20;;
1601;SDS011;794;48.592;9.634;2022-09-09T02:42:58;1.70;;;1.60;;
1601;SDS011;794;48.592;9.634;2022-09-09T02:45:27;2.70;;;1.23;;
1601;SDS011;794;48.592;9.634;2022-09-09T02:48:03;5.90;;;1.63;;
1601;SDS011;794;48.592;9.634;2022-09-09T02:50:39;2.43;;;1.50;;
1601;SDS011;794;48.592;9.634;2022-09-09T02:53:16;2.10;;;1.03;;
1601;SDS011;794;48.592;9.634;2022-09-09T02:55:54;1.30;;;1.20;;
1601;SDS011;794;48.592;9.634;2022-09-09T02:58:25;2.70;;;1.67;;
1601;SDS011;794;48.592;9.634;2022-09-09T03:00:55;2.10;;;1.40;;
1601;SDS011;794;48.592;9.634;2022-09-09T03:03:26;3.10;;;1.73;;
1601;SDS011;794;48.592;9.634;2022-09-09T03:05:53;5.57;;;1.30;;
1601;SDS011;794;48.592;9.634;2022-09-09T03:08:22;1.37;;;1.27;;
1601;SDS011;794;48.592;9.634;2022-09-09T03:10:49;1.40;;;1.30;;
1601;SDS011;794;48.592;9.634;2022-09-09T03:13:19;6.00;;;5.10;;
1601;SDS011;794;48.592;9.634;2022-09-09T03:15:50;6.00;;;2.30;;
1601;SDS011;794;48.592;9.634;2022-09-09T03:18:25;1.73;;;1.50;;
1601;SDS011;794;48.592;9.634;2022-09-09T03:20:54;3.70;;;1.70;;
1601;SDS011;794;48.592;9.634;2022-09-09T03:23:24;4.37;;;1.40;;
1601;SDS011;794;48.592;9.634;2022-09-09T03:25:52;2.57;;;1.40;;
1601;SDS011;794;48.592;9.634;2022-09-09T03:28:22;1.20;;;1.10;;
1601;SDS011;794;48.592;9.634;2022-09-09T03:30:59;4.50;;;1.10;;
1601;SDS011;794;48.592;9.634;2022-09-09T03:33:26;1.40;;;1.10;;
1601;SDS011;794;48.592;9.634;2022-09-09T03:35:54;4.20;;;1.53;;
1601;SDS011;794;48.592;9.634;2022-09-09T03:38:22;2.07;;;1.50;;
1601;SDS011;794;48.592;9.634;2022-09-09T03:40:50;7.97;;;1.67;;
1601;SDS011;794;48.592;9.634;2022-09-09T03:43:20;3.23;;;1.40;;
1601;SDS011;794;48.592;9.634;2022-09-09T03:45:50;1.63;;;1.53;;
1601;SDS011;794;48.592;9.634;2022-09-09T03:48:19;2.70;;;1.53;;
1601;SDS011;794;48.592;9.634;2022-09-09T03:50:46;2.03;;;1.80;;
1601;SDS011;794;48.592;9.634;2022-09-09T03:53:13;1.27;;;1.17;;
1601;SDS011;794;48.592;9.634;2022-09-09T03:55:48;3.80;;;1.63;;
1601;SDS011;794;48.592;9.634;2022-09-09T03:58:34;3.93;;;1.70;;
1601;SDS011;794;48.592;9.634;2022-09-09T04:01:02;1.77;;;1.50;;
1601;SDS011;794;48.592;9.634;2022-09-09T04:03:32;5.53;;;1.40;;
1601;SDS011;794;48.592;9.634;2022-09-09T04:05:59;3.87;;;1.60;;
1601;SDS011;794;48.592;9.634;2022-09-09T04:08:28;1.67;;;1.57;;
1601;SDS011;794;48.592;9.634;2022-09-09T04:11:04;2.60;;;1.50;;
1601;SDS011;794;48.592;9.634;2022-09-09T04:13:41;1.73;;;1.63;;
1601;SDS011;794;48.592;9.634;2022-09-09T04:16:12;1.97;;;1.50;;
1601;SDS011;794;48.592;9.634;2022-09-09T04:18:41;1.70;;;1.60;;
1601;SDS011;794;48.592;9.634;2022-09-09T04:21:10;1.87;;;1.60;;
1601;SDS011;794;48.592;9.634;2022-09-09T04:23:38;2.20;;;1.40;;
1601;SDS011;794;48.592;9.634;2022-09-09T04:26:05;2.27;;;2.10;;
1601;SDS011;794;48.592;9.634;2022-09-09T04:28:34;2.00;;;1.30;;
1601;SDS011;794;48.592;9.634;2022-09-09T04:31:06;1.57;;;1.33;;
1601;SDS011;794;48.592;9.634;2022-09-09T04:33:46;2.30;;;1.63;;
1601;SDS011;794;48.592;9.634;2022-09-09T04:36:14;2.87;;;1.80;;
1601;SDS011;794;48.592;9.634;2022-09-09T04:38:43;4.07;;;1.50;;
1601;SDS011;794;48.592;9.634;2022-09-09T04:41:11;2.87;;;1.63;;
1601;SDS011;794;48.592;9.634;2022-09-09T04:43:38;2.80;;;1.87;;
1601;SDS011;794;48.592;9.634;2022-09-09T04:46:23;3.30;;;1.80;;
1601;SDS011;794;48.592;9.634;2022-09-09T04:48:51;3.60;;;1.53;;
1601;SDS011;794;48.592;9.634;2022-09-09T04:51:18;2.23;;;1.80;;
1601;SDS011;794;48.592;9.634;2022-09-09T04:53:46;4.43;;;1.57;;
1601;SDS011;794;48.592;9.634;2022-09-09T04:56:15;4.50;;;1.57;;
1601;SDS011;794;48.592;9.634;2022-09-09T04:58:43;7.57;;;2.07;;
1601;SDS011;794;48.592;9.634;2022-09-09T05:01:11;2.70;;;1.90;;
1601;SDS011;794;48.592;9.634;2022-09-09T05:03:42;2.10;;;1.67;;
1601;SDS011;794;48.592;9.634;2022-09-09T05:06:12;1.60;;;1.50;;
1601;SDS011;794;48.592;9.634;2022-09-09T05:08:43;1.90;;;1.73;;
1601;SDS011;794;48.592;9.634;2022-09-09T05:11:13;1.60;;;1.50;;
1601;SDS011;794;48.592;9.634;2022-09-09T05:13:42;3.63;;;2.10;;
1601;SDS011;794;48.592;9.634;2022-09-09T05:16:09;3.53;;;1.53;;
1601;SDS011;794;48.592;9.634;2022-09-09T05:18:37;2.67;;;1.57;;
1601;SDS011;794;48.592;9.634;2022-09-09T05:21:07;2.60;;;1.90;;
1601;SDS011;794;48.592;9.634;2022-09-09T05:23:38;2.10;;;1.90;;
1601;SDS011;794;48.592;9.634;2022-09-09T05:26:05;2.00;;;1.83;;
1601;SDS011;794;48.592;9.634;2022-09-09T05:28:35;2.73;;;1.60;;
1601;SDS011;794;48.592;9.634;2022-09-09T05:31:04;5.93;;;1.90;;
1601;SDS011;794;48.592;9.634;2022-09-09T05:33:41;2.50;;;2.20;;
1601;SDS011;794;48.592;9.634;2022-09-09T05:36:12;3.50;;;1.83;;
1601;SDS011;794;48.592;9.634;2022-09-09T05:38:42;2.00;;;1.73;;
1601;SDS011;794;48.592;9.634;2022-09-09T05:41:12;3.03;;;1.93;;
1601;SDS011;794;48.592;9.634;2022-09-09T05:43:40;1.83;;;1.50;;
1601;SDS011;794;48.592;9.634;2022-09-09T05:46:09;3.33;;;1.77;;
1601;SDS011;794;48.592;9.634;2022-09-09T05:48:40;4.67;;;1.87;;
1601;SDS011;794;48.592;9.634;2022-09-09T05:51:10;1.93;;;1.40;;
1601;SDS011;794;48.592;9.634;2022-09-09T05:53:44;4.23;;;1.57;;
1601;SDS011;794;48.592;9.634;2022-09-09T05:56:12;6.40;;;1.77;;
1601;SDS011;794;48.592;9.634;2022-09-09T05:58:41;7.43;;;2.40;;
1601;SDS011;794;48.592;9.634;2022-09-09T06:01:10;2.23;;;1.80;;
1601;SDS011;794;48.592;9.634;2022-09-09T06:03:39;2.97;;;2.07;;
1601;SDS011;794;48.592;9.634;2022-09-09T06:06:07;1.50;;;1.40;;
1601;SDS011;794;48.592;9.634;2022-09-09T06:08:39;2.10;;;1.90;;
1601;SDS011;794;48.592;9.634;2022-09-09T06:11:13;2.90;;;1.60;;
1601;SDS011;794;48.592;9.634;2022-09-09T06:13:42;3.77;;;2.20;;
1601;SDS011;794;48.592;9.634;2022-09-09T06:16:15;3.53;;;2.03;;
1601;SDS011;794;48.592;9.634;2022-09-09T06:18:43;3.77;;;1.77;;
1601;SDS011;794;48.592;9.634;2022-09-09T06:21:14;4.90;;;2.67;;
1601;SDS011;794;48.592;9.634;2022-09-09T06:23:44;7.57;;;2.70;;
1601;SDS011;794;48.592;9.634;2022-09-09T06:26:15;1.83;;;1.70;;
1601;SDS011;794;48.592;9.634;2022-09-09T06:28:46;2.30;;;1.60;;
1601;SDS011;794;48.592;9.634;2022-09-09T06:31:15;2.33;;;1.60;;
1601;SDS011;794;48.592;9.634;2022-09-09T06:33:49;5.90;;;1.80;;
1601;SDS011;794;48.592;9.634;2022-09-09T06:36:21;2.20;;;1.50;;
1601;SDS011;794;48.592;9.634;2022-09-09T06:38:49;1.30;;;1.20;;
1601;SDS011;794;48.592;9.634;2022-09-09T06:41:18;4.93;;;1.77;;
1601;SDS011;794;48.592;9.634;2022-09-09T06:43:51;5.73;;;1.50;;
1601;SDS011;794;48.592;9.634;2022-09-09T06:46:19;2.13;;;1.10;;
1601;SDS011;794;48.592;9.634;2022-09-09T06:48:48;1.10;;;0.90;;
1601;SDS011;794;48.592;9.634;2022-09-09T06:51:16;1.27;;;1.10;;
1601;SDS011;794;48.592;9.634;2022-09-09T06:53:46;11.90;;;1.50;;
1601;SDS011;794;48.592;9.634;2022-09-09T06:56:20;2.80;;;1.10;;
1601;SDS011;794;48.592;9.634;2022-09-09T06:58:51;2.20;;;1.50;;
1601;SDS011;794;48.592;9.634;2022-09-09T07:01:21;1.30;;;1.17;;
1601;SDS011;794;48.592;9.634;2022-09-09T07:03:50;7.80;;;1.47;;
1601;SDS011;794;48.592;9.634;2022-09-09T07:06:20;2.97;;;1.10;;
1601;SDS011;794;48.592;9.634;2022-09-09T07:08:52;1.20;;;1.10;;
1601;SDS011;794;48.592;9.634;2022-09-09T07:11:26;1.03;;;0.90;;
1601;SDS011;794;48.592;9.634;2022-09-09T07:13:57;4.70;;;1.30;;
1601;SDS011;794;48.592;9.634;2022-09-09T07:16:39;6.00;;;1.03;;
1601;SDS011;794;48.592;9.634;2022-09-09T07:19:07;2.20;;;1.33;;
1601;SDS011;794;48.592;9.634;2022-09-09T07:21:35;4.63;;;1.27;;
1601;SDS011;794;48.592;9.634;2022-09-09T07:24:05;2.23;;;1.83;;
1601;SDS011;794;48.592;9.634;2022-09-09T07:26:36;1.70;;;1.10;;
1601;SDS011;794;48.592;9.634;2022-09-09T07:29:04;2.07;;;1.10;;
1601;SDS011;794;48.592;9.634;2022-09-09T07:31:32;4.83;;;1.27;;
1601;SDS011;794;48.592;9.634;2022-09-09T07:34:01;4.20;;;1.20;;
1601;SDS011;794;48.592;9.634;2022-09-09T07:36:29;3.27;;;1.50;;
1601;SDS011;794;48.592;9.634;2022-09-09T07:38:59;6.43;;;1.50;;
1601;SDS011;794;48.592;9.634;2022-09-09T07:41:31;3.60;;;1.30;;
1601;SDS011;794;48.592;9.634;2022-09-09T07:44:09;4.03;;;1.67;;
1601;SDS011;794;48.592;9.634;2022-09-09T07:46:40;1.40;;;0.90;;
1601;SDS011;794;48.592;9.634;2022-09-09T07:49:10;3.70;;;1.53;;
1601;SDS011;794;48.592;9.634;2022-09-09T07:51:44;1.20;;;0.90;;
1601;SDS011;794;48.592;9.634;2022-09-09T07:54:13;4.00;;;1.03;;
1601;SDS011;794;48.592;9.634;2022-09-09T07:56:59;1.00;;;0.90;;
1601;SDS011;794;48.592;9.634;2022-09-09T07:59:30;2.50;;;1.10;;
1601;SDS011;794;48.592;9.634;2022-09-09T08:01:59;4.60;;;1.30;;
1601;SDS011;794;48.592;9.634;2022-09-09T08:04:29;1.10;;;1.00;;
1601;SDS011;794;48.592;9.634;2022-09-09T08:07:00;4.33;;;1.10;;
1601;SDS011;794;48.592;9.634;2022-09-09T08:09:32;1.10;;;0.80;;
1601;SDS011;794;48.592;9.634;2022-09-09T08:12:00;4.83;;;1.80;;
1601;SDS011;794;48.592;9.634;2022-09-09T08:14:33;2.27;;;1.00;;
1601;SDS011;794;48.592;9.634;2022-09-09T08:17:00;1.80;;;0.93;;
1601;SDS011;794;48.592;9.634;2022-09-09T08:19:29;1.03;;;0.90;;
1601;SDS011;794;48.592;9.634;2022-09-09T08:21:59;2.23;;;1.03;;
1601;SDS011;794;48.592;9.634;2022-09-09T08:24:27;1.83;;;0.97;;
1601;SDS011;794;48.592;9.634;2022-09-09T08:26:54;3.13;;;1.03;;
1601;SDS011;794;48.592;9.634;2022-09-09T08:29:22;4.93;;;0.90;;
1601;SDS011;794;48.592;9.634;2022-09-09T08:31:51;2.60;;;1.10;;
1601;SDS011;794;48.592;9.634;2022-09-09T08:34:20;3.73;;;1.40;;
1601;SDS011;794;48.592;9.634;2022-09-09T08:36:50;4.27;;;1.10;;
1601;SDS011;794;48.592;9.634;2022-09-09T08:39:18;3.10;;;1.00;;
1601;SDS011;794;48.592;9.634;2022-09-09T08:41:51;1.70;;;1.00;;
1601;SDS011;794;48.592;9.634;2022-09-09T08:44:44;1.67;;;0.80;;
1601;SDS011;794;48.592;9.634;2022-09-09T08:47:23;3.70;;;1.23;;
1601;SDS011;794;48.592;9.634;2022-09-09T08:49:58;2.97;;;1.27;;
1601;SDS011;794;48.592;9.634;2022-09-09T08:52:38;2.10;;;1.20;;
1601;SDS011;794;48.592;9.634;2022-09-09T08:55:16;2.50;;;1.17;;
1601;SDS011;794;48.592;9.634;2022-09-09T08:57:52;1.30;;;1.20;;
1601;SDS011;794;48.592;9.634;2022-09-09T09:03:22;4.17;;;0.90;;
1601;SDS011;794;48.592;9.634;2022-09-09T09:05:57;3.43;;;1.30;;
1601;SDS011;794;48.592;9.634;2022-09-09T09:08:33;2.03;;;1.10;;
1601;SDS011;794;48.592;9.634;2022-09-09T09:11:07;3.50;;;1.07;;
1601;SDS011;794;48.592;9.634;2022-09-09T09:13:34;4.30;;;1.27;;
1601;SDS011;794;48.592;9.634;2022-09-09T09:16:13;0.87;;;0.80;;
1601;SDS011;794;48.592;9.634;2022-09-09T09:18:47;2.10;;;1.03;;
1601;SDS011;794;48.592;9.634;2022-09-09T09:21:15;1.90;;;0.87;;
1601;SDS011;794;48.592;9.634;2022-09-09T09:23:48;2.07;;;1.40;;
1601;SDS011;794;48.592;9.634;2022-09-09T09:26:22;2.90;;;0.90;;
1601;SDS011;794;48.592;9.634;2022-09-09T09:28:54;1.30;;;1.20;;
1601;SDS011;794;48.592;9.634;2022-09-09T09:31:26;3.00;;;1.20;;
1601;SDS011;794;48.592;9.634;2022-09-09T09:33:55;3.03;;;1.23;;
1601;SDS011;794;48.592;9.634;2022-09-09T09:36:24;2.90;;;1.13;;
1601;SDS011;794;48.592;9.634;2022-09-09T09:38:59;2.20;;;1.33;;
1601;SDS011;794;48.592;9.634;2022-09-09T09:41:31;2.67;;;1.10;;
1601;SDS011;794;48.592;9.634;2022-09-09T09:44:00;1.43;;;0.90;;
1601;SDS011;794;48.592;9.634;2022-09-09T09:46:32;3.90;;;1.40;;
1601;SDS011;794;48.592;9.634;2022-09-09T09:49:01;2.00;;;1.03;;
1601;SDS011;794;48.592;9.634;2022-09-09T09:51:30;1.93;;;0.90;;
1601;SDS011;794;48.592;9.634;2022-09-09T09:54:09;2.60;;;1.03;;
1601;SDS011;794;48.592;9.634;2022-09-09T09:56:43;3.53;;;0.90;;
1601;SDS011;794;48.592;9.634;2022-09-09T09:59:19;1.33;;;0.80;;
1601;SDS011;794;48.592;9.634;2022-09-09T10:02:13;1.63;;;0.80;;
1601;SDS011;794;48.592;9.634;2022-09-09T10:04:46;5.70;;;0.90;;
1601;SDS011;794;48.592;9.634;2022-09-09T10:07:17;1.83;;;1.27;;
1601;SDS011;794;48.592;9.634;2022-09-09T10:09:44;4.67;;;0.90;;
1601;SDS011;794;48.592;9.634;2022-09-09T10:12:15;4.60;;;0.80;;
1601;SDS011;794;48.592;9.634;2022-09-09T10:14:52;2.60;;;0.80;;
1601;SDS011;794;48.592;9.634;2022-09-09T10:17:29;4.27;;;1.20;;
1601;SDS011;794;48.592;9.634;2022-09-09T10:20:13;1.67;;;0.60;;
1601;SDS011;794;48.592;9.634;2022-09-09T10:22:50;2.80;;;0.87;;
1601;SDS011;794;48.592;9.634;2022-09-09T10:31:20;3.47;;;1.07;;
1601;SDS011;794;48.592;9.634;2022-09-09T10:33:57;2.43;;;0.97;;
1601;SDS011;794;48.592;9.634;2022-09-09T10:36:37;4.63;;;0.87;;
1601;SDS011;794;48.592;9.634;2022-09-09T10:39:13;1.33;;;0.73;;
1601;SDS011;794;48.592;9.634;2022-09-09T10:41:50;2.23;;;1.13;;
1601;SDS011;794;48.592;9.634;2022-09-09T10:44:30;0.80;;;0.70;;
1601;SDS011;794;48.592;9.634;2022-09-09T10:47:30;2.80;;;0.87;;
1601;SDS011;794;48.592;9.634;2022-09-09T10:50:15;2.17;;;0.90;;
1601;SDS011;794;48.592;9.634;2022-09-09T10:52:55;1.70;;;0.90;;
1601;SDS011;794;48.592;9.634;2022-09-09T10:55:33;2.10;;;0.97;;
1601;SDS011;794;48.592;9.634;2022-09-09T10:58:12;2.47;;;0.90;;
1601;SDS011;794;48.592;9.634;2022-09-09T11:00:44;1.33;;;0.90;;
1601;SDS011;794;48.592;9.634;2022-09-09T11:03:15;2.43;;;1.30;;
1601;SDS011;794;48.592;9.634;2022-09-09T11:05:51;3.63;;;1.00;;
1601;SDS011;794;48.592;9.634;2022-09-09T11:08:24;2.07;;;1.00;;
1601;SDS011;794;48.592;9.634;2022-09-09T11:10:53;1.03;;;0.80;;
1601;SDS011;794;48.592;9.634;2022-09-09T11:13:26;2.47;;;0.83;;
1601;SDS011;794;48.592;9.634;2022-09-09T11:16:03;2.10;;;0.90;;
1601;SDS011;794;48.592;9.634;2022-09-09T11:18:42;1.97;;;1.07;;
1601;SDS011;794;48.592;9.634;2022-09-09T11:21:17;1.60;;;0.80;;
1601;SDS011;794;48.592;9.634;2022-09-09T11:23:52;1.63;;;1.17;;
1601;SDS011;794;48.592;9.634;2022-09-09T11:26:24;3.13;;;1.30;;
1601;SDS011;794;48.592;9.634;2022-09-09T11:29:07;2.57;;;0.73;;
1601;SDS011;794;48.592;9.634;2022-09-09T11:31:59;2.70;;;1.20;;
1601;SDS011;794;48.592;9.634;2022-09-09T11:34:36;4.00;;;0.80;;
1601;SDS011;794;48.592;9.634;2022-09-09T11:37:19;2.60;;;0.60;;
1601;SDS011;794;48.592;9.634;2022-09-09T11:40:04;3.40;;;1.10;;
1601;SDS011;794;48.592;9.634;2022-09-09T11:42:42;2.20;;;0.70;;
1601;SDS011;794;48.592;9.634;2022-09-09T11:45:10;2.60;;;1.20;;
1601;SDS011;794;48.592;9.634;2022-09-09T11:47:53;3.93;;;0.70;;
1601;SDS011;794;48.592;9.634;2022-09-09T11:50:29;1.63;;;0.70;;
1601;SDS011;794;48.592;9.634;2022-09-09T11:53:05;0.67;;;0.60;;
1601;SDS011;794;48.592;9.634;2022-09-09T11:55:47;1.43;;;0.73;;
1601;SDS011;794;48.592;9.634;2022-09-09T11:58:26;2.23;;;0.87;;
1601;SDS011;794;48.592;9.634;2022-09-09T12:00:58;1.43;;;0.70;;
1601;SDS011;794;48.592;9.634;2022-09-09T12:03:32;2.97;;;1.23;;
1601;SDS011;794;48.592;9.634;2022-09-09T12:06:09;1.97;;;0.83;;
1601;SDS011;794;48.592;9.634;2022-09-09T12:08:40;1.83;;;0.80;;
1601;SDS011;794;48.592;9.634;2022-09-09T12:11:11;2.27;;;0.80;;
1601;SDS011;794;48.592;9.634;2022-09-09T12:13:39;1.03;;;0.60;;
1601;SDS011;794;48.592;9.634;2022-09-09T12:19:02;1.80;;;0.70;;
1601;SDS011;794;48.592;9.634;2022-09-09T12:21:32;4.30;;;0.80;;
1601;SDS011;794;48.592;9.634;2022-09-09T12:24:04;1.50;;;0.80;;
1601;SDS011;794;48.592;9.634;2022-09-09T12:26:37;3.33;;;1.10;;
1601;SDS011;794;48.592;9.634;2022-09-09T12:29:13;1.10;;;0.80;;
1601;SDS011;794;48.592;9.634;2022-09-09T12:31:51;3.33;;;0.90;;
1601;SDS011;794;48.592;9.634;2022-09-09T12:34:32;2.77;;;0.70;;
1601;SDS011;794;48.592;9.634;2022-09-09T12:37:04;2.83;;;1.03;;
1601;SDS011;794;48.592;9.634;2022-09-09T12:39:38;4.67;;;1.00;;
1601;SDS011;794;48.592;9.634;2022-09-09T12:42:17;2.40;;;0.80;;
1601;SDS011;794;48.592;9.634;2022-09-09T12:44:53;1.53;;;0.80;;
1601;SDS011;794;48.592;9.634;2022-09-09T12:47:21;2.60;;;0.80;;
1601;SDS011;794;48.592;9.634;2022-09-09T12:49:54;1.93;;;1.33;;
1601;SDS011;794;48.592;9.634;2022-09-09T12:52:24;3.33;;;1.07;;
1601;SDS011;794;48.592;9.634;2022-09-09T12:54:56;2.40;;;1.20;;
1601;SDS011;794;48.592;9.634;2022-09-09T12:57:33;3.70;;;0.80;;
1601;SDS011;794;48.592;9.634;2022-09-09T13:00:07;2.27;;;0.83;;
1601;SDS011;794;48.592;9.634;2022-09-09T13:02:47;1.43;;;0.60;;
1601;SDS011;794;48.592;9.634;2022-09-09T13:05:17;1.80;;;0.67;;
1601;SDS011;794;48.592;9.634;2022-09-09T13:07:47;0.90;;;0.70;;
1601;SDS011;794;48.592;9.634;2022-09-09T13:10:16;3.40;;;1.00;;
1601;SDS011;794;48.592;9.634;2022-09-09T13:12:51;2.57;;;0.87;;
1601;SDS011;794;48.592;9.634;2022-09-09T13:15:19;2.53;;;0.93;;
1601;SDS011;794;48.592;9.634;2022-09-09T13:17:50;2.10;;;0.73;;
1601;SDS011;794;48.592;9.634;2022-09-09T13:20:19;1.70;;;0.70;;
1601;SDS011;794;48.592;9.634;2022-09-09T13:22:47;1.27;;;0.80;;
1601;SDS011;794;48.592;9.634;2022-09-09T13:25:19;2.40;;;0.80;;
1601;SDS011;794;48.592;9.634;2022-09-09T13:28:03;0.77;;;0.60;;
1601;SDS011;794;48.592;9.634;2022-09-09T13:30:31;4.60;;;0.60;;
1601;SDS011;794;48.592;9.634;2022-09-09T13:33:03;3.27;;;0.80;;
1601;SDS011;794;48.592;9.634;2022-09-09T13:35:48;1.47;;;0.60;;
1601;SDS011;794;48.592;9.634;2022-09-09T13:38:18;2.03;;;0.70;;
1601;SDS011;794;48.592;9.634;2022-09-09T13:40:53;2.43;;;0.80;;
1601;SDS011;794;48.592;9.634;2022-09-09T13:43:24;3.87;;;0.60;;
1601;SDS011;794;48.592;9.634;2022-09-09T13:45:53;2.40;;;0.70;;
1601;SDS011;794;48.592;9.634;2022-09-09T13:48:21;1.80;;;0.60;;
1601;SDS011;794;48.592;9.634;2022-09-09T13:50:55;2.97;;;0.87;;
1601;SDS011;794;48.592;9.634;2022-09-09T13:53:23;2.73;;;1.17;;
1601;SDS011;794;48.592;9.634;2022-09-09T13:55:51;4.20;;;0.70;;
1601;SDS011;794;48.592;9.634;2022-09-09T13:58:18;3.80;;;1.20;;
1601;SDS011;794;48.592;9.634;2022-09-09T14:00:48;1.67;;;0.80;;
1601;SDS011;794;48.592;9.634;2022-09-09T14:03:15;2.63;;;0.90;;
1601;SDS011;794;48.592;9.634;2022-09-09T14:05:43;3.77;;;1.00;;
1601;SDS011;794;48.592;9.634;2022-09-09T14:08:13;2.20;;;1.17;;
1601;SDS011;794;48.592;9.634;2022-09-09T14:10:49;1.13;;;0.60;;
1601;SDS011;794;48.592;9.634;2022-09-09T14:13:16;3.90;;;0.83;;
1601;SDS011;794;48.592;9.634;2022-09-09T14:15:43;1.60;;;1.17;;
1601;SDS011;794;48.592;9.634;2022-09-09T14:18:12;2.23;;;0.73;;
1601;SDS011;794;48.592;9.634;2022-09-09T14:20:39;3.47;;;1.23;;
1601;SDS011;794;48.592;9.634;2022-09-09T14:23:09;1.90;;;0.67;;
1601;SDS011;794;48.592;9.634;2022-09-09T14:25:41;0.80;;;0.50;;
1601;SDS011;794;48.592;9.634;2022-09-09T14:28:12;3.43;;;1.03;;
1601;SDS011;794;48.592;9.634;2022-09-09T14:30:40;4.20;;;0.90;;
1601;SDS011;794;48.592;9.634;2022-09-09T14:33:23;1.27;;;0.60;;
1601;SDS011;794;48.592;9.634;2022-09-09T14:35:54;1.30;;;0.80;;
1601;SDS011;794;48.592;9.634;2022-09-09T14:38:22;2.40;;;1.00;;
1601;SDS011;794;48.592;9.634;2022-09-09T14:40:49;2.50;;;1.10;;
1601;SDS011;794;48.592;9.634;2022-09-09T14:43:16;2.50;;;0.63;;
1601;SDS011;794;48.592;9.634;2022-09-09T14:45:46;2.53;;;0.60;;
1601;SDS011;794;48.592;9.634;2022-09-09T14:48:16;2.40;;;0.77;;
1601;SDS011;794;48.592;9.634;2022-09-09T14:50:45;2.17;;;0.87;;
1601;SDS011;794;48.592;9.634;2022-09-09T14:53:12;1.50;;;0.60;;
1601;SDS011;794;48.592;9.634;2022-09-09T14:55:42;1.50;;;0.77;;
1601;SDS011;794;48.592;9.634;2022-09-09T14:58:09;2.30;;;1.00;;
1601;SDS011;794;48.592;9.634;2022-09-09T15:00:37;4.00;;;0.60;;
1601;SDS011;794;48.592;9.634;2022-09-09T15:03:07;2.23;;;0.60;;
1601;SDS011;794;48.592;9.634;2022-09-09T15:05:35;0.97;;;0.70;;
1601;SDS011;794;48.592;9.634;2022-09-09T15:08:05;1.90;;;0.90;;
1601;SDS011;794;48.592;9.634;2022-09-09T15:10:34;8.07;;;1.30;;
1601;SDS011;794;48.592;9.634;2022-09-09T15:13:02;1.13;;;0.60;;
1601;SDS011;794;48.592;9.634;2022-09-09T15:15:29;2.00;;;0.80;;
1601;SDS011;794;48.592;9.634;2022-09-09T15:17:56;2.40;;;0.83;;
1601;SDS011;794;48.592;9.634;2022-09-09T15:20:24;1.30;;;0.90;;
1601;SDS011;794;48.592;9.634;2022-09-09T15:22:51;1.50;;;0.87;;
1601;SDS011;794;48.592;9.634;2022-09-09T15:25:19;1.60;;;0.67;;
1601;SDS011;794;48.592;9.634;2022-09-09T15:27:46;1.20;;;0.60;;
1601;SDS011;794;48.592;9.634;2022-09-09T15:30:14;1.53;;;0.80;;
1601;SDS011;794;48.592;9.634;2022-09-09T15:32:42;2.43;;;1.00;;
1601;SDS011;794;48.592;9.634;2022-09-09T15:35:09;6.43;;;0.90;;
1601;SDS011;794;48.592;9.634;2022-09-09T15:37:36;0.80;;;0.50;;
1601;SDS011;794;48.592;9.634;2022-09-09T15:40:03;2.10;;;0.80;;
1601;SDS011;794;48.592;9.634;2022-09-09T15:42:32;1.20;;;0.63;;
1601;SDS011;794;48.592;9.634;2022-09-09T15:44:59;1.27;;;0.60;;
1601;SDS011;794;48.592;9.634;2022-09-09T15:47:26;2.80;;;0.70;;
1601;SDS011;794;48.592;9.634;2022-09-09T15:49:53;2.70;;;0.60;;
1601;SDS011;794;48.592;9.634;2022-09-09T15:52:20;2.37;;;0.80;;
1601;SDS011;794;48.592;9.634;2022-09-09T15:54:47;2.10;;;0.87;;
1601;SDS011;794;48.592;9.634;2022-09-09T15:57:30;2.63;;;1.00;;
1601;SDS011;794;48.592;9.634;2022-09-09T16:00:04;2.00;;;0.77;;
1601;SDS011;794;48.592;9.634;2022-09-09T16:02:35;2.77;;;0.70;;
1601;SDS011;794;48.592;9.634;2022-09-09T16:05:05;2.80;;;1.00;;
1601;SDS011;794;48.592;9.634;2022-09-09T16:07:32;4.50;;;1.23;;
1601;SDS011;794;48.592;9.634;2022-09-09T16:10:00;1.30;;;0.60;;
1601;SDS011;794;48.592;9.634;2022-09-09T16:12:28;1.93;;;0.73;;
1601;SDS011;794;48.592;9.634;2022-09-09T16:14:55;1.97;;;0.63;;
1601;SDS011;794;48.592;9.634;2022-09-09T16:17:27;2.80;;;0.73;;